Time;durP1;ratioP1;P1;durP2;ratioP2;P2;SDS_P1;SDS_P2;PMS_P1;PMS_P2;Temp;Humidity;BMP_temperature;BMP_pressure;BME280_temperature;BME280_humidity;BME280_pressure;Samples;Min_cycle;Max_cycle;Signal;HPM_P1;HPM_P2
2023/04/27 00:00:06;;;;;;;2.00;1.50;;;;;;;;;;5001485;28;20307;-62
2023/04/27 00:02:32;;;;;;;2.20;1.55;;;;;;;;;;4996603;28;20050;-60
2023/04/27 00:04:57;;;;;;;2.22;1.63;;;;;;;;;;5007286;28;20065;-62
2023/04/27 00:07:22;;;;;;;2.30;1.60;;;;;;;;;;5001685;28;20038;-62
2023/04/27 00:09:47;;;;;;;2.60;1.90;;;;;;;;;;5007535;28;20288;-60
2023/04/27 00:12:13;;;;;;;2.42;1.70;;;;;;;;;;4991086;28;20038;-62
2023/04/27 00:14:38;;;;;;;2.40;1.67;;;;;;;;;;5008091;28;20455;-62
2023/04/27 00:17:03;;;;;;;2.00;1.70;;;;;;;;;;5001893;28;20474;-62
2023/04/27 00:19:29;;;;;;;2.28;1.77;;;;;;;;;;5014463;28;20354;-62
2023/04/27 00:21:56;;;;;;;2.13;1.52;;;;;;;;;;5013217;28;20480;-61
2023/04/27 00:24:21;;;;;;;2.00;1.40;;;;;;;;;;4985115;28;20038;-62
2023/04/27 00:26:47;;;;;;;3.00;1.70;;;;;;;;;;5012635;28;20184;-62
2023/04/27 00:29:12;;;;;;;3.07;1.90;;;;;;;;;;5006527;28;20300;-64
2023/04/27 00:31:37;;;;;;;2.60;1.58;;;;;;;;;;5015584;28;20038;-62
2023/04/27 00:34:02;;;;;;;3.17;1.83;;;;;;;;;;5014670;28;20116;-61
2023/04/27 00:36:28;;;;;;;2.30;1.60;;;;;;;;;;5004856;28;20288;-60
2023/04/27 00:38:53;;;;;;;2.50;1.63;;;;;;;;;;5004215;28;20319;-62
2023/04/27 00:41:18;;;;;;;2.27;1.53;;;;;;;;;;5008152;28;20993;-62
2023/04/27 00:43:44;;;;;;;2.60;1.57;;;;;;;;;;5017341;28;20291;-61
2023/04/27 00:46:10;;;;;;;2.53;1.73;;;;;;;;;;4999034;28;20287;-60
2023/04/27 00:48:36;;;;;;;2.25;1.52;;;;;;;;;;4986135;28;20053;-59
2023/04/27 00:51:01;;;;;;;2.10;1.48;;;;;;;;;;5015513;28;20025;-61
2023/04/27 00:53:26;;;;;;;2.17;1.70;;;;;;;;;;5000056;28;20041;-61
2023/04/27 00:55:51;;;;;;;3.17;1.77;;;;;;;;;;5004500;28;20049;-60
2023/04/27 00:58:17;;;;;;;2.10;1.43;;;;;;;;;;5021392;28;20025;-61
2023/04/27 01:00:42;;;;;;;3.00;1.67;;;;;;;;;;5004966;28;20068;-62
2023/04/27 01:03:07;;;;;;;2.53;1.70;;;;;;;;;;5017289;28;20038;-61
2023/04/27 01:05:33;;;;;;;2.47;1.35;;;;;;;;;;4977674;28;20280;-61
2023/04/27 01:07:58;;;;;;;4.10;1.60;;;;;;;;;;5004211;28;20041;-62
2023/04/27 01:10:23;;;;;;;2.57;1.50;;;;;;;;;;5010870;28;20040;-62
2023/04/27 01:12:49;;;;;;;2.73;1.50;;;;;;;;;;5005093;28;20455;-60
2023/04/27 01:15:14;;;;;;;1.90;1.50;;;;;;;;;;5016026;28;20311;-60
2023/04/27 01:17:40;;;;;;;3.20;1.35;;;;;;;;;;5005252;28;20287;-61
2023/04/27 01:20:09;;;;;;;2.17;1.60;;;;;;;;;;4971408;28;20057;-61
2023/04/27 01:22:35;;;;;;;1.98;1.48;;;;;;;;;;4987474;28;20034;-61
2023/04/27 01:25:00;;;;;;;2.00;1.52;;;;;;;;;;4971377;28;20069;-61
2023/04/27 01:27:25;;;;;;;2.25;1.70;;;;;;;;;;5003682;28;20557;-61
2023/04/27 01:29:50;;;;;;;2.20;1.50;;;;;;;;;;5002387;28;20055;-61
2023/04/27 01:32:16;;;;;;;3.00;1.48;;;;;;;;;;5007323;28;20335;-60
2023/04/27 01:34:41;;;;;;;2.63;1.60;;;;;;;;;;5020666;28;20037;-61
2023/04/27 01:37:06;;;;;;;2.53;1.90;;;;;;;;;;5004564;28;20062;-61
2023/04/27 01:39:31;;;;;;;2.10;1.37;;;;;;;;;;5014765;28;20409;-61
2023/04/27 01:41:57;;;;;;;1.55;1.25;;;;;;;;;;5022315;28;20347;-61
2023/04/27 01:44:22;;;;;;;2.17;1.60;;;;;;;;;;5011836;28;20446;-61
2023/04/27 01:46:48;;;;;;;2.22;1.50;;;;;;;;;;5015626;28;20400;-60
2023/04/27 01:49:13;;;;;;;2.08;1.40;;;;;;;;;;5003105;28;20048;-64
2023/04/27 01:51:38;;;;;;;2.30;1.47;;;;;;;;;;5010967;28;20477;-63
2023/04/27 01:54:03;;;;;;;4.07;1.57;;;;;;;;;;5012439;28;20299;-62
2023/04/27 01:56:29;;;;;;;2.80;1.37;;;;;;;;;;5017269;28;20312;-62
2023/04/27 01:58:54;;;;;;;1.90;1.33;;;;;;;;;;5002680;28;20486;-60
2023/04/27 02:01:19;;;;;;;2.67;1.50;;;;;;;;;;5009490;28;20038;-61
2023/04/27 02:03:45;;;;;;;2.37;1.50;;;;;;;;;;5018248;28;20052;-61
2023/04/27 02:06:10;;;;;;;2.47;1.63;;;;;;;;;;5011042;28;20289;-61
2023/04/27 02:08:36;;;;;;;1.85;1.23;;;;;;;;;;5010016;28;20411;-61
2023/04/27 02:11:01;;;;;;;2.20;1.47;;;;;;;;;;5006420;28;20170;-62
2023/04/27 02:13:26;;;;;;;1.42;1.20;;;;;;;;;;5011250;28;20069;-62
2023/04/27 02:15:51;;;;;;;2.17;1.20;;;;;;;;;;5010898;28;20503;-62
2023/04/27 02:18:17;;;;;;;2.23;1.40;;;;;;;;;;5008996;28;20590;-60
2023/04/27 02:20:42;;;;;;;1.88;1.27;;;;;;;;;;5017137;28;20730;-61
2023/04/27 02:23:07;;;;;;;1.90;1.33;;;;;;;;;;5011564;28;20029;-63
2023/04/27 02:25:35;;;;;;;1.80;1.37;;;;;;;;;;5006757;28;20148;-61
2023/04/27 02:28:00;;;;;;;2.25;1.30;;;;;;;;;;5002554;28;20297;-62
2023/04/27 02:30:27;;;;;;;2.17;1.40;;;;;;;;;;5002500;28;20108;-60
2023/04/27 02:32:52;;;;;;;1.98;1.60;;;;;;;;;;4977700;28;20281;-62
2023/04/27 02:35:17;;;;;;;2.60;1.60;;;;;;;;;;5007931;28;20573;-61
2023/04/27 02:37:42;;;;;;;2.27;1.40;;;;;;;;;;5014318;28;20291;-62
2023/04/27 02:40:08;;;;;;;2.13;1.33;;;;;;;;;;5004823;28;20384;-60
2023/04/27 02:42:33;;;;;;;2.60;1.50;;;;;;;;;;5004846;28;20412;-61
2023/04/27 02:44:58;;;;;;;2.67;1.40;;;;;;;;;;5006805;28;20038;-61
2023/04/27 02:47:24;;;;;;;2.17;1.43;;;;;;;;;;5002337;28;20738;-61
2023/04/27 02:49:49;;;;;;;2.10;1.40;;;;;;;;;;5002660;28;20542;-62
2023/04/27 02:52:14;;;;;;;2.03;1.50;;;;;;;;;;5003179;28;20041;-60
2023/04/27 02:54:39;;;;;;;1.80;1.30;;;;;;;;;;5008310;28;20784;-62
2023/04/27 02:57:05;;;;;;;1.83;1.48;;;;;;;;;;5009921;28;20277;-61
2023/04/27 02:59:30;;;;;;;2.20;1.38;;;;;;;;;;5004332;28;20084;-61
2023/04/27 03:01:55;;;;;;;1.43;1.30;;;;;;;;;;5007254;28;20042;-61
2023/04/27 03:04:20;;;;;;;2.03;1.27;;;;;;;;;;4996191;28;20145;-61
2023/04/27 03:06:46;;;;;;;1.75;1.40;;;;;;;;;;5006821;28;20293;-61
2023/04/27 03:09:11;;;;;;;1.73;1.10;;;;;;;;;;5001869;28;20070;-62
2023/04/27 03:11:37;;;;;;;1.65;1.20;;;;;;;;;;5010228;28;20288;-61
2023/04/27 03:14:02;;;;;;;1.63;1.23;;;;;;;;;;4997379;28;20708;-61
2023/04/27 03:16:27;;;;;;;3.35;1.42;;;;;;;;;;4993160;28;20046;-62
2023/04/27 03:18:53;;;;;;;1.77;1.23;;;;;;;;;;5005112;28;20866;-61
2023/04/27 03:21:18;;;;;;;2.47;1.60;;;;;;;;;;5000843;28;20275;-62
2023/04/27 03:23:43;;;;;;;1.83;1.20;;;;;;;;;;4999008;28;20284;-61
2023/04/27 03:26:09;;;;;;;2.03;1.45;;;;;;;;;;4995213;28;20296;-62
2023/04/27 03:28:34;;;;;;;1.75;1.40;;;;;;;;;;4994472;28;20052;-61
2023/04/27 03:31:00;;;;;;;2.33;1.33;;;;;;;;;;5000790;28;20038;-61
2023/04/27 03:33:27;;;;;;;1.60;1.13;;;;;;;;;;5000310;28;20537;-62
2023/04/27 03:35:56;;;;;;;2.47;1.23;;;;;;;;;;4999491;28;20064;-61
2023/04/27 03:38:21;;;;;;;1.80;1.30;;;;;;;;;;4997242;28;20072;-62
2023/04/27 03:40:46;;;;;;;2.25;1.20;;;;;;;;;;5007630;28;20026;-61
2023/04/27 03:43:11;;;;;;;1.77;1.00;;;;;;;;;;5009108;28;20345;-62
2023/04/27 03:45:36;;;;;;;1.80;1.20;;;;;;;;;;5006446;28;20029;-62
2023/04/27 03:48:02;;;;;;;1.47;1.10;;;;;;;;;;5006183;28;20046;-61
2023/04/27 03:50:27;;;;;;;2.67;1.40;;;;;;;;;;5001892;28;20387;-62
2023/04/27 03:52:52;;;;;;;1.88;1.20;;;;;;;;;;4990276;28;20042;-60
2023/04/27 03:55:17;;;;;;;1.73;1.20;;;;;;;;;;5012114;28;20077;-62
2023/04/27 03:57:43;;;;;;;2.10;1.23;;;;;;;;;;5000869;28;20280;-61
2023/04/27 04:00:10;;;;;;;2.87;1.30;;;;;;;;;;5004190;28;20287;-62
2023/04/27 04:02:36;;;;;;;2.25;1.17;;;;;;;;;;5007509;28;20315;-62
2023/04/27 04:05:01;;;;;;;1.65;1.30;;;;;;;;;;5002584;28;20451;-61
2023/04/27 04:07:27;;;;;;;2.50;1.47;;;;;;;;;;4993692;28;20041;-61
2023/04/27 04:09:52;;;;;;;1.43;1.20;;;;;;;;;;5001256;28;20313;-61
2023/04/27 04:12:17;;;;;;;2.30;1.07;;;;;;;;;;4984523;28;20045;-62
2023/04/27 04:14:42;;;;;;;1.70;1.10;;;;;;;;;;5005288;28;20869;-63
2023/04/27 04:17:09;;;;;;;1.73;1.23;;;;;;;;;;4978655;28;20826;-63
2023/04/27 04:19:35;;;;;;;1.38;1.00;;;;;;;;;;4981353;28;20025;-61
2023/04/27 04:22:00;;;;;;;2.22;1.20;;;;;;;;;;5007081;28;20024;-62
2023/04/27 04:24:25;;;;;;;1.93;1.20;;;;;;;;;;4997518;28;20032;-62
2023/04/27 04:26:50;;;;;;;1.60;1.10;;;;;;;;;;5012679;28;20111;-64
2023/04/27 04:29:16;;;;;;;2.33;1.10;;;;;;;;;;5000776;28;20037;-62
2023/04/27 04:31:41;;;;;;;1.30;0.87;;;;;;;;;;5012607;28;20065;-63
2023/04/27 04:34:07;;;;;;;1.55;1.00;;;;;;;;;;4994831;28;20045;-66
2023/04/27 04:36:32;;;;;;;1.42;1.00;;;;;;;;;;5014054;28;20521;-61
2023/04/27 04:38:58;;;;;;;1.55;1.17;;;;;;;;;;4996461;28;20412;-61
2023/04/27 04:41:23;;;;;;;2.88;1.10;;;;;;;;;;4992052;28;20033;-60
2023/04/27 04:43:48;;;;;;;1.58;1.20;;;;;;;;;;4991395;28;20021;-62
2023/04/27 04:46:14;;;;;;;1.80;1.10;;;;;;;;;;4976220;28;20022;-65
2023/04/27 04:48:39;;;;;;;1.65;0.80;;;;;;;;;;4990966;28;20160;-64
2023/04/27 04:51:05;;;;;;;2.00;1.15;;;;;;;;;;4975948;28;20465;-62
2023/04/27 04:53:31;;;;;;;1.23;0.80;;;;;;;;;;4991225;28;20072;-60
2023/04/27 04:55:56;;;;;;;1.83;0.90;;;;;;;;;;4992746;28;20486;-62
2023/04/27 04:58:21;;;;;;;1.70;1.13;;;;;;;;;;4992122;28;20107;-62
2023/04/27 05:00:46;;;;;;;1.43;1.00;;;;;;;;;;4993110;28;20010;-62
2023/04/27 05:03:12;;;;;;;1.50;1.00;;;;;;;;;;4991172;28;20272;-60
2023/04/27 05:05:37;;;;;;;1.63;0.87;;;;;;;;;;4980156;28;20269;-63
2023/04/27 05:08:02;;;;;;;1.90;0.83;;;;;;;;;;4990299;28;20258;-61
2023/04/27 05:10:28;;;;;;;1.40;0.88;;;;;;;;;;4992615;28;20277;-61
2023/04/27 05:12:53;;;;;;;1.75;1.00;;;;;;;;;;4991931;28;20033;-60
2023/04/27 05:15:18;;;;;;;1.25;1.00;;;;;;;;;;4992304;28;20329;-65
2023/04/27 05:17:43;;;;;;;1.27;0.90;;;;;;;;;;4991649;28;20032;-63
2023/04/27 05:20:09;;;;;;;2.47;0.90;;;;;;;;;;4991981;28;20037;-61
2023/04/27 05:22:35;;;;;;;2.28;0.80;;;;;;;;;;4991794;28;20320;-60
2023/04/27 05:25:00;;;;;;;2.22;1.00;;;;;;;;;;4990308;28;20046;-62
2023/04/27 05:27:25;;;;;;;2.03;0.95;;;;;;;;;;4992295;28;20024;-61
2023/04/27 05:29:51;;;;;;;2.20;1.13;;;;;;;;;;4989372;28;20049;-61
2023/04/27 05:32:16;;;;;;;2.43;1.00;;;;;;;;;;4992258;28;20275;-59
2023/04/27 05:34:43;;;;;;;3.20;0.93;;;;;;;;;;4990599;28;20364;-61
2023/04/27 05:37:08;;;;;;;3.05;1.25;;;;;;;;;;4997706;28;20489;-61
2023/04/27 05:39:34;;;;;;;2.40;1.07;;;;;;;;;;4994956;28;20776;-61
2023/04/27 05:41:59;;;;;;;3.70;1.47;;;;;;;;;;5012104;28;20315;-63
2023/04/27 05:44:27;;;;;;;4.07;1.10;;;;;;;;;;5011254;28;20272;-61
2023/04/27 05:46:52;;;;;;;2.28;1.20;;;;;;;;;;5000086;28;20046;-61
2023/04/27 05:49:17;;;;;;;2.75;1.10;;;;;;;;;;5015387;28;20041;-62
2023/04/27 05:51:43;;;;;;;2.40;1.20;;;;;;;;;;5015280;28;20038;-61
2023/04/27 05:54:08;;;;;;;1.70;1.10;;;;;;;;;;5011952;28;20265;-61
2023/04/27 05:56:33;;;;;;;1.92;1.10;;;;;;;;;;4992948;28;20284;-61
2023/04/27 05:58:59;;;;;;;2.45;1.05;;;;;;;;;;5011437;28;20038;-60
2023/04/27 06:01:24;;;;;;;1.83;1.20;;;;;;;;;;5011171;28;20463;-59
2023/04/27 06:03:49;;;;;;;2.50;1.10;;;;;;;;;;5010486;28;20125;-61
2023/04/27 06:06:15;;;;;;;1.58;1.05;;;;;;;;;;5009013;28;20072;-60
2023/04/27 06:08:41;;;;;;;2.45;1.30;;;;;;;;;;4992757;28;20549;-60
2023/04/27 06:11:06;;;;;;;2.60;1.17;;;;;;;;;;5010384;28;20120;-63
2023/04/27 06:13:32;;;;;;;1.90;1.00;;;;;;;;;;4996647;28;20132;-59
2023/04/27 06:15:57;;;;;;;2.45;1.08;;;;;;;;;;4992921;28;20419;-63
2023/04/27 06:18:23;;;;;;;4.47;1.10;;;;;;;;;;5008707;28;20230;-63
2023/04/27 06:20:48;;;;;;;1.60;0.80;;;;;;;;;;4990856;28;20727;-63
2023/04/27 06:23:13;;;;;;;3.03;1.40;;;;;;;;;;5009800;28;20374;-65
2023/04/27 06:25:39;;;;;;;2.50;1.00;;;;;;;;;;5010284;28;20307;-62
2023/04/27 06:28:04;;;;;;;2.13;1.15;;;;;;;;;;5007217;28;20755;-61
2023/04/27 06:30:30;;;;;;;2.72;1.20;;;;;;;;;;4998421;28;20050;-61
2023/04/27 06:32:55;;;;;;;1.65;1.10;;;;;;;;;;5009138;28;20707;-61
2023/04/27 06:35:21;;;;;;;2.23;1.10;;;;;;;;;;5006339;28;20030;-60
2023/04/27 06:37:46;;;;;;;2.92;0.90;;;;;;;;;;4989767;28;20045;-61
2023/04/27 06:40:11;;;;;;;1.90;1.00;;;;;;;;;;4991732;28;20096;-62
2023/04/27 06:42:36;;;;;;;3.25;1.10;;;;;;;;;;5006809;28;20323;-60
2023/04/27 06:45:03;;;;;;;3.87;1.20;;;;;;;;;;5006601;28;20458;-61
2023/04/27 06:47:28;;;;;;;3.03;1.33;;;;;;;;;;5010106;28;20764;-61
2023/04/27 06:49:53;;;;;;;2.97;1.30;;;;;;;;;;5010030;28;20054;-62
2023/04/27 06:52:19;;;;;;;2.53;1.30;;;;;;;;;;5011899;28;20972;-62
2023/04/27 06:54:44;;;;;;;3.45;1.50;;;;;;;;;;5018979;28;20421;-62
2023/04/27 06:57:10;;;;;;;2.33;1.40;;;;;;;;;;5009395;28;20091;-62
2023/04/27 06:59:35;;;;;;;3.17;1.10;;;;;;;;;;5011210;28;20510;-64
2023/04/27 07:02:00;;;;;;;2.53;1.03;;;;;;;;;;5011303;28;20131;-62
2023/04/27 07:04:26;;;;;;;2.00;1.13;;;;;;;;;;4997548;28;20311;-64
2023/04/27 07:06:51;;;;;;;2.92;1.02;;;;;;;;;;4979185;28;20612;-61
2023/04/27 07:09:16;;;;;;;3.97;1.40;;;;;;;;;;4994483;28;20283;-62
2023/04/27 07:11:41;;;;;;;3.37;1.20;;;;;;;;;;4997599;28;20253;-64
2023/04/27 07:14:07;;;;;;;4.93;1.20;;;;;;;;;;4991972;28;20299;-66
2023/04/27 07:16:32;;;;;;;2.55;1.30;;;;;;;;;;5009422;28;20048;-65
2023/04/27 07:18:57;;;;;;;2.57;1.20;;;;;;;;;;5007909;28;20034;-64
2023/04/27 07:21:22;;;;;;;1.87;1.20;;;;;;;;;;5009542;28;20662;-63
2023/04/27 07:23:48;;;;;;;2.53;1.30;;;;;;;;;;5009507;28;20037;-65
2023/04/27 07:26:13;;;;;;;4.20;1.40;;;;;;;;;;5008202;28;20710;-62
2023/04/27 07:28:38;;;;;;;3.83;1.70;;;;;;;;;;4978124;28;20304;-64
2023/04/27 07:31:04;;;;;;;3.10;1.25;;;;;;;;;;5010563;28;20677;-62
2023/04/27 07:33:30;;;;;;;2.92;1.40;;;;;;;;;;5017488;28;20037;-63
2023/04/27 07:35:55;;;;;;;3.30;1.50;;;;;;;;;;4996014;28;20424;-62
2023/04/27 07:38:21;;;;;;;4.53;1.42;;;;;;;;;;5008058;28;20106;-62
2023/04/27 07:40:46;;;;;;;4.47;1.50;;;;;;;;;;4982403;28;20036;-63
2023/04/27 07:43:11;;;;;;;3.17;1.70;;;;;;;;;;5010593;28;20030;-62
2023/04/27 07:45:38;;;;;;;3.80;1.55;;;;;;;;;;5010912;28;20037;-63
2023/04/27 07:48:04;;;;;;;2.97;1.20;;;;;;;;;;5005596;28;20048;-63
2023/04/27 07:50:29;;;;;;;3.17;1.30;;;;;;;;;;5007227;28;20030;-64
2023/04/27 07:52:55;;;;;;;3.63;1.27;;;;;;;;;;4993813;28;20045;-62
2023/04/27 07:55:21;;;;;;;3.60;1.40;;;;;;;;;;5009931;28;20033;-62
2023/04/27 07:57:46;;;;;;;3.17;1.50;;;;;;;;;;4991927;28;20054;-63
2023/04/27 08:00:12;;;;;;;2.50;1.40;;;;;;;;;;4990902;28;20139;-62
2023/04/27 08:02:37;;;;;;;3.17;1.60;;;;;;;;;;5007679;28;20406;-62
2023/04/27 08:05:03;;;;;;;4.00;1.50;;;;;;;;;;5010014;28;20033;-62
2023/04/27 08:07:28;;;;;;;2.90;1.10;;;;;;;;;;4996600;28;20273;-61
2023/04/27 08:09:54;;;;;;;2.45;1.30;;;;;;;;;;5013396;28;20941;-62
2023/04/27 08:12:19;;;;;;;4.57;1.77;;;;;;;;;;5004770;28;20481;-62
2023/04/27 08:14:45;;;;;;;3.55;1.30;;;;;;;;;;5018508;28;20623;-62
2023/04/27 08:17:10;;;;;;;2.58;1.40;;;;;;;;;;4984251;28;20048;-61
2023/04/27 08:19:36;;;;;;;2.92;1.40;;;;;;;;;;5015660;28;20040;-63
2023/04/27 08:22:01;;;;;;;3.65;1.40;;;;;;;;;;5015872;28;20041;-62
2023/04/27 08:24:26;;;;;;;3.23;1.40;;;;;;;;;;5019765;28;20052;-64
2023/04/27 08:26:51;;;;;;;3.23;1.60;;;;;;;;;;5014719;28;20513;-62
2023/04/27 08:29:17;;;;;;;3.90;1.43;;;;;;;;;;5010762;28;20621;-62
2023/04/27 08:31:42;;;;;;;3.07;1.30;;;;;;;;;;5003291;28;20276;-64
2023/04/27 08:34:07;;;;;;;2.63;1.50;;;;;;;;;;5017511;28;20284;-63
2023/04/27 08:36:33;;;;;;;3.43;1.20;;;;;;;;;;5020401;28;20108;-64
2023/04/27 08:38:58;;;;;;;2.25;1.10;;;;;;;;;;5018858;28;20280;-63
2023/04/27 08:41:23;;;;;;;3.23;1.37;;;;;;;;;;5019501;28;20403;-65
2023/04/27 08:43:49;;;;;;;3.17;1.27;;;;;;;;;;5005251;28;20276;-67
2023/04/27 08:46:20;;;;;;;3.42;1.45;;;;;;;;;;5000893;28;20396;-62
2023/04/27 08:48:46;;;;;;;3.20;1.60;;;;;;;;;;4980365;28;20050;-62
2023/04/27 08:51:12;;;;;;;2.95;1.20;;;;;;;;;;5016323;28;20517;-63
2023/04/27 08:53:38;;;;;;;3.58;1.40;;;;;;;;;;4989466;28;20021;-63
2023/04/27 08:56:03;;;;;;;3.20;1.20;;;;;;;;;;4983641;28;20057;-63
2023/04/27 08:58:36;;;;;;;3.00;1.45;;;;;;;;;;4994275;28;20061;-63
2023/04/27 09:01:03;;;;;;;3.15;1.25;;;;;;;;;;4991163;28;20046;-63
2023/04/27 09:03:28;;;;;;;3.47;1.33;;;;;;;;;;5015958;28;20040;-63
2023/04/27 09:05:55;;;;;;;3.00;1.40;;;;;;;;;;5016138;28;20037;-66
2023/04/27 09:08:20;;;;;;;2.75;1.30;;;;;;;;;;5014951;28;20308;-63
2023/04/27 09:10:49;;;;;;;4.40;2.10;;;;;;;;;;5022901;28;20044;-63
2023/04/27 09:13:14;;;;;;;5.75;2.47;;;;;;;;;;5023698;28;20409;-62
2023/04/27 09:15:45;;;;;;;3.50;2.30;;;;;;;;;;5012579;28;20060;-62
2023/04/27 09:18:13;;;;;;;3.60;1.80;;;;;;;;;;5014375;28;20072;-65
2023/04/27 09:20:56;;;;;;;2.60;1.80;;;;;;;;;;5005082;28;20048;-65
2023/04/27 09:23:31;;;;;;;4.55;1.90;;;;;;;;;;5005229;28;20037;-64
2023/04/27 09:26:00;;;;;;;3.38;1.90;;;;;;;;;;5012098;28;20095;-64
2023/04/27 09:28:29;;;;;;;3.20;1.57;;;;;;;;;;4988918;28;20468;-63
2023/04/27 09:30:55;;;;;;;2.95;1.85;;;;;;;;;;4997271;28;20288;-62
2023/04/27 09:33:24;;;;;;;3.42;1.40;;;;;;;;;;5002943;28;20069;-62
2023/04/27 09:35:49;;;;;;;3.85;1.75;;;;;;;;;;5014072;28;20191;-62
2023/04/27 09:38:15;;;;;;;2.67;1.58;;;;;;;;;;5010065;28;20134;-63
2023/04/27 09:40:40;;;;;;;3.72;1.45;;;;;;;;;;5000729;28;20034;-65
2023/04/27 09:43:06;;;;;;;3.47;1.42;;;;;;;;;;4988879;28;20046;-65
2023/04/27 09:45:34;;;;;;;2.53;1.33;;;;;;;;;;4991932;28;21624;-63
2023/04/27 09:47:59;;;;;;;2.75;1.40;;;;;;;;;;5005985;28;20281;-64
2023/04/27 09:50:25;;;;;;;2.30;1.33;;;;;;;;;;4992182;28;20056;-63
2023/04/27 09:52:50;;;;;;;2.90;1.70;;;;;;;;;;4988108;28;20077;-63
2023/04/27 09:55:16;;;;;;;2.73;1.30;;;;;;;;;;5022947;28;20041;-65
2023/04/27 09:57:50;;;;;;;5.22;1.40;;;;;;;;;;5009451;28;20828;-65
2023/04/27 10:00:35;;;;;;;2.55;1.27;;;;;;;;;;5022910;28;20040;-64
2023/04/27 10:03:09;;;;;;;3.03;1.60;;;;;;;;;;5000658;28;20115;-63
2023/04/27 10:05:35;;;;;;;3.20;1.50;;;;;;;;;;4998607;28;20046;-62
2023/04/27 10:08:00;;;;;;;3.53;1.50;;;;;;;;;;4986919;28;20053;-62
2023/04/27 10:10:25;;;;;;;2.47;1.13;;;;;;;;;;4998376;28;20046;-63
2023/04/27 10:12:57;;;;;;;2.43;1.40;;;;;;;;;;5006403;28;20679;-63
2023/04/27 10:15:26;;;;;;;1.98;1.17;;;;;;;;;;5009028;28;20087;-64
2023/04/27 10:17:53;;;;;;;2.35;1.30;;;;;;;;;;5000910;28;20049;-63
2023/04/27 10:20:28;;;;;;;2.42;1.33;;;;;;;;;;4987917;28;20044;-63
2023/04/27 10:22:53;;;;;;;2.97;1.30;;;;;;;;;;5002063;28;20537;-62
2023/04/27 10:25:20;;;;;;;3.80;1.63;;;;;;;;;;5008080;28;20108;-64
2023/04/27 10:27:51;;;;;;;3.05;1.40;;;;;;;;;;4995160;28;20368;-65
2023/04/27 10:30:16;;;;;;;2.95;1.48;;;;;;;;;;5015367;28;20542;-64
2023/04/27 10:32:48;;;;;;;3.15;1.40;;;;;;;;;;4985375;28;20037;-64
2023/04/27 10:35:14;;;;;;;3.15;1.38;;;;;;;;;;5005140;28;20070;-65
2023/04/27 10:37:40;;;;;;;2.97;1.40;;;;;;;;;;4990958;28;20211;-63
2023/04/27 10:40:06;;;;;;;3.45;1.30;;;;;;;;;;5019331;28;20042;-64
2023/04/27 10:42:31;;;;;;;3.58;1.30;;;;;;;;;;4986856;28;20059;-63
2023/04/27 10:44:57;;;;;;;2.40;1.30;;;;;;;;;;5021091;28;20112;-66
2023/04/27 10:47:23;;;;;;;3.00;1.48;;;;;;;;;;5017863;28;20736;-65
2023/04/27 10:49:51;;;;;;;2.65;1.35;;;;;;;;;;5015313;28;20510;-63
2023/04/27 10:52:16;;;;;;;2.20;1.23;;;;;;;;;;5007117;28;20521;-64
2023/04/27 10:54:44;;;;;;;2.67;1.33;;;;;;;;;;5003393;28;20033;-63
2023/04/27 10:57:10;;;;;;;2.13;1.20;;;;;;;;;;4985411;28;20320;-63
2023/04/27 10:59:46;;;;;;;2.50;1.42;;;;;;;;;;4990928;28;20503;-64
2023/04/27 11:02:11;;;;;;;3.03;1.27;;;;;;;;;;5020202;28;20037;-63
2023/04/27 11:04:40;;;;;;;2.03;1.00;;;;;;;;;;5017264;28;20090;-64
2023/04/27 11:07:07;;;;;;;2.83;1.60;;;;;;;;;;5011781;28;20041;-63
2023/04/27 11:09:33;;;;;;;2.22;1.15;;;;;;;;;;4998690;28;20053;-64
2023/04/27 11:11:58;;;;;;;2.35;1.40;;;;;;;;;;5014877;28;20037;-62
2023/04/27 11:14:23;;;;;;;2.38;1.00;;;;;;;;;;5021043;28;20029;-65
2023/04/27 11:16:49;;;;;;;2.53;1.27;;;;;;;;;;5021853;28;20025;-62
2023/04/27 11:19:14;;;;;;;3.33;1.40;;;;;;;;;;5016559;28;20068;-65
2023/04/27 11:21:39;;;;;;;2.47;1.20;;;;;;;;;;5007306;28;20044;-64
2023/04/27 11:24:05;;;;;;;3.83;1.30;;;;;;;;;;5015217;28;20037;-64
2023/04/27 11:26:31;;;;;;;2.30;1.20;;;;;;;;;;5013750;28;20033;-63
2023/04/27 11:28:57;;;;;;;2.35;1.20;;;;;;;;;;4992802;28;20075;-64
2023/04/27 11:31:23;;;;;;;3.70;1.20;;;;;;;;;;4991624;28;20045;-63
2023/04/27 11:33:48;;;;;;;3.38;1.27;;;;;;;;;;4995875;28;20045;-62
2023/04/27 11:36:17;;;;;;;2.53;1.38;;;;;;;;;;5016766;28;20060;-64
2023/04/27 11:38:42;;;;;;;3.15;1.42;;;;;;;;;;4994825;28;20038;-62
2023/04/27 11:41:07;;;;;;;7.88;1.92;;;;;;;;;;5005968;28;20036;-62
2023/04/27 11:43:33;;;;;;;3.83;1.23;;;;;;;;;;5009586;28;20045;-65
2023/04/27 11:46:02;;;;;;;3.17;1.23;;;;;;;;;;5008280;28;20427;-63
2023/04/27 11:48:27;;;;;;;2.63;1.27;;;;;;;;;;4994690;28;21714;-64
2023/04/27 11:50:53;;;;;;;4.10;1.35;;;;;;;;;;5005508;28;20521;-65
2023/04/27 11:53:29;;;;;;;3.23;1.27;;;;;;;;;;4993137;28;20525;-65
2023/04/27 11:55:54;;;;;;;3.95;1.40;;;;;;;;;;4980729;28;20307;-66
2023/04/27 11:58:19;;;;;;;3.83;1.40;;;;;;;;;;4997876;28;20030;-66
2023/04/27 12:00:46;;;;;;;2.97;1.13;;;;;;;;;;5016463;28;20045;-64
2023/04/27 12:03:11;;;;;;;2.58;1.55;;;;;;;;;;5001420;28;20295;-66
2023/04/27 12:05:38;;;;;;;2.77;1.63;;;;;;;;;;5007729;28;20045;-64
2023/04/27 12:08:03;;;;;;;3.95;1.42;;;;;;;;;;4968700;28;20038;-65
2023/04/27 12:10:28;;;;;;;4.30;1.35;;;;;;;;;;5000096;28;20461;-63
2023/04/27 12:12:53;;;;;;;2.43;1.13;;;;;;;;;;4989352;28;20045;-64
2023/04/27 12:15:19;;;;;;;2.20;1.10;;;;;;;;;;5009870;28;20280;-63
2023/04/27 12:17:44;;;;;;;4.73;1.40;;;;;;;;;;5003785;28;20108;-65
2023/04/27 12:20:10;;;;;;;2.80;1.27;;;;;;;;;;5009473;28;20040;-66
2023/04/27 12:22:36;;;;;;;3.15;1.10;;;;;;;;;;4985513;28;20074;-65
2023/04/27 12:25:01;;;;;;;2.97;1.25;;;;;;;;;;4992121;28;20119;-65
2023/04/27 12:27:26;;;;;;;2.85;1.00;;;;;;;;;;5010504;28;20443;-64
2023/04/27 12:29:53;;;;;;;2.37;1.13;;;;;;;;;;4997267;28;20046;-66
2023/04/27 12:32:18;;;;;;;2.63;1.25;;;;;;;;;;5008183;28;20284;-67
2023/04/27 12:34:45;;;;;;;2.42;1.15;;;;;;;;;;5012579;28;20041;-64
2023/04/27 12:37:10;;;;;;;3.78;1.15;;;;;;;;;;4971741;28;20418;-66
2023/04/27 12:39:36;;;;;;;3.53;1.00;;;;;;;;;;4988255;28;20040;-66
2023/04/27 12:42:02;;;;;;;2.80;1.30;;;;;;;;;;5005291;28;20542;-66
2023/04/27 12:44:27;;;;;;;2.78;1.30;;;;;;;;;;5002239;28;20029;-65
2023/04/27 12:46:53;;;;;;;2.67;1.20;;;;;;;;;;4993443;28;20437;-66
2023/04/27 12:49:18;;;;;;;2.43;1.30;;;;;;;;;;5021662;28;20179;-64
2023/04/27 12:51:44;;;;;;;1.98;1.08;;;;;;;;;;5015828;28;20069;-68
2023/04/27 12:54:10;;;;;;;2.42;1.20;;;;;;;;;;5002985;28;20041;-66
2023/04/27 12:56:36;;;;;;;2.28;1.20;;;;;;;;;;5009586;28;20039;-70
2023/04/27 12:59:01;;;;;;;3.33;1.30;;;;;;;;;;4992848;28;20492;-66
2023/04/27 13:01:26;;;;;;;3.60;1.20;;;;;;;;;;5015222;28;20854;-66
2023/04/27 13:03:52;;;;;;;1.95;1.05;;;;;;;;;;4992054;28;20375;-65
2023/04/27 13:06:17;;;;;;;2.38;1.00;;;;;;;;;;5006678;28;20022;-66
2023/04/27 13:08:43;;;;;;;4.15;1.60;;;;;;;;;;5009945;28;20057;-67
2023/04/27 13:11:08;;;;;;;2.23;1.13;;;;;;;;;;4971078;28;20049;-66
2023/04/27 13:13:33;;;;;;;3.53;1.33;;;;;;;;;;5016171;28;20284;-68
2023/04/27 13:15:59;;;;;;;2.60;1.40;;;;;;;;;;4988240;28;20543;-69
2023/04/27 13:18:24;;;;;;;2.60;1.20;;;;;;;;;;4984840;28;20880;-69
2023/04/27 13:20:50;;;;;;;3.25;1.20;;;;;;;;;;5014589;28;20788;-65
2023/04/27 13:23:15;;;;;;;2.17;1.13;;;;;;;;;;5022585;28;20065;-62
2023/04/27 13:25:40;;;;;;;1.50;1.00;;;;;;;;;;5000505;28;20081;-63
2023/04/27 13:28:06;;;;;;;3.20;1.30;;;;;;;;;;5002829;28;20049;-64
2023/04/27 13:30:31;;;;;;;2.75;1.20;;;;;;;;;;4994410;28;20299;-62
2023/04/27 13:32:57;;;;;;;1.27;0.98;;;;;;;;;;4996032;28;20065;-60
2023/04/27 13:35:23;;;;;;;2.10;1.30;;;;;;;;;;5003009;28;20022;-61
2023/04/27 13:37:48;;;;;;;2.70;1.35;;;;;;;;;;5006446;28;20054;-62
2023/04/27 13:40:14;;;;;;;2.50;1.55;;;;;;;;;;4982318;28;20032;-63
2023/04/27 13:42:39;;;;;;;2.53;1.30;;;;;;;;;;5002349;28;20509;-67
2023/04/27 13:45:05;;;;;;;2.47;1.00;;;;;;;;;;5012330;28;20142;-63
2023/04/27 13:47:36;;;;;;;2.28;1.00;;;;;;;;;;4984251;28;20125;-66
2023/04/27 13:50:08;;;;;;;3.08;1.05;;;;;;;;;;5015062;28;20060;-64
2023/04/27 13:52:33;;;;;;;2.28;1.30;;;;;;;;;;5004784;28;20061;-63
2023/04/27 13:54:59;;;;;;;1.77;1.00;;;;;;;;;;5017078;28;20110;-66
2023/04/27 13:57:24;;;;;;;4.38;1.48;;;;;;;;;;5021905;28;20491;-62
2023/04/27 13:59:50;;;;;;;2.40;1.00;;;;;;;;;;4992395;28;20551;-64
2023/04/27 14:02:15;;;;;;;2.78;1.20;;;;;;;;;;4992799;28;20197;-66
2023/04/27 14:04:40;;;;;;;2.43;1.00;;;;;;;;;;5010650;28;20028;-63
2023/04/27 14:07:06;;;;;;;1.67;1.00;;;;;;;;;;4991098;28;20311;-66
2023/04/27 14:09:31;;;;;;;3.00;1.60;;;;;;;;;;5016783;28;20087;-64
2023/04/27 14:11:56;;;;;;;2.43;1.40;;;;;;;;;;5021678;28;20343;-67
2023/04/27 14:14:21;;;;;;;2.88;1.10;;;;;;;;;;5008831;28;20285;-64
2023/04/27 14:16:47;;;;;;;2.63;1.13;;;;;;;;;;5016858;28;20446;-65
2023/04/27 14:19:14;;;;;;;3.13;1.17;;;;;;;;;;5002722;28;20414;-65
2023/04/27 14:21:40;;;;;;;2.17;1.25;;;;;;;;;;5016663;28;20108;-66
2023/04/27 14:24:05;;;;;;;4.07;1.00;;;;;;;;;;5009529;28;20228;-63
2023/04/27 14:26:30;;;;;;;2.47;1.25;;;;;;;;;;5002081;28;20030;-66
2023/04/27 14:28:55;;;;;;;2.10;1.23;;;;;;;;;;5021630;28;20441;-64
2023/04/27 14:31:21;;;;;;;1.92;1.10;;;;;;;;;;5020706;28;20068;-64
2023/04/27 14:33:46;;;;;;;3.13;1.10;;;;;;;;;;4976214;28;21173;-62